Albert, New Mexico
Current Conditions -  °F | °C
As of 2:53 PM on Wednesday 28 Jan 2015 (Local Time) from KTCC Reporting Station
Clear Clear  
Wind Chill: 22°   Ceiling: Unl
Heat Index: 22°   Visibility: 10mi
Dew Point: -2°   Wind: 8mph
Humidity: 21%   Direction: 180°S
Pressure: 30"   Gusts: NA
Location:  35.7181°N, 103.591°W
Report Text: KTCC 282153Z AUTO 18007KT 10SM CLR 22/M02 A3000 RMK AO2 SLP119 T02171017
Loading
Personal Weather Stations






























Interactive Weather Map New forecast layout! Learn more

10-Day Weather Forecast

Advertisements
Track Severe Weather on mobile